createdAt,value
2023-04-19T00:01:28.319Z,102989.69
2023-04-19T00:03:55.989Z,102987.38
2023-04-19T00:06:23.443Z,102992.03
2023-04-19T00:08:49.860Z,102987.88
2023-04-19T00:11:16.362Z,102982.03
2023-04-19T00:13:42.799Z,102984.66
2023-04-19T00:16:09.356Z,102989.28
2023-04-19T00:18:36.412Z,102983.44
2023-04-19T00:21:03.027Z,102974.84
2023-04-19T00:23:29.508Z,102982.69
2023-04-19T00:25:56.004Z,102976.84
2023-04-19T00:28:22.523Z,102974.56
2023-04-19T00:30:48.970Z,102978.16
2023-04-19T00:33:15.458Z,102981.00
2023-04-19T00:35:42.252Z,102984.91
2023-04-19T00:38:08.899Z,102985.38
2023-04-19T00:40:36.704Z,102978.66
2023-04-19T00:43:03.209Z,102977.13
2023-04-19T00:45:29.767Z,102968.88
2023-04-19T00:47:56.378Z,102966.59
2023-04-19T00:50:22.985Z,102972.19
2023-04-19T00:52:49.563Z,102957.88
2023-04-19T00:55:16.341Z,102964.88
2023-04-19T00:57:43.118Z,102966.78
2023-04-19T01:00:10.105Z,102961.88
2023-04-19T01:02:36.749Z,102958.41
2023-04-19T01:05:03.484Z,102954.00
2023-04-19T01:07:30.017Z,102948.66
2023-04-19T01:09:56.413Z,102947.59
2023-04-19T01:12:23.201Z,102954.50
2023-04-19T01:14:50.520Z,102946.41
2023-04-19T01:17:18.837Z,102952.38
2023-04-19T01:19:46.074Z,102953.72
2023-04-19T01:22:19.211Z,102944.69
2023-04-19T01:24:45.723Z,102948.03
2023-04-19T01:27:14.006Z,102945.06
2023-04-19T01:29:40.917Z,102945.66
2023-04-19T01:32:07.917Z,102949.00
2023-04-19T01:34:34.599Z,102949.72
2023-04-19T01:37:01.099Z,102946.06
2023-04-19T01:39:27.679Z,102943.31
2023-04-19T01:41:54.071Z,102938.66
2023-04-19T01:44:20.507Z,102946.19
2023-04-19T01:46:46.992Z,102945.81
2023-04-19T01:49:13.455Z,102943.81
2023-04-19T01:51:40.026Z,102955.78
2023-04-19T01:54:06.470Z,102953.84
2023-04-19T01:56:33.218Z,102956.25
2023-04-19T01:58:59.717Z,102951.72
2023-04-19T02:01:26.236Z,102946.00
2023-04-19T02:03:52.962Z,102943.97
2023-04-19T02:06:19.672Z,102954.97
2023-04-19T02:08:46.121Z,102946.84
2023-04-19T02:11:16.709Z,102952.00
2023-04-19T02:13:43.381Z,102948.19
2023-04-19T02:16:10.627Z,102948.88
2023-04-19T02:18:38.552Z,102950.56
2023-04-19T02:21:06.408Z,102945.09
2023-04-19T02:23:33.046Z,102939.56
2023-04-19T02:26:01.438Z,102944.50
2023-04-19T02:28:27.940Z,102945.09
2023-04-19T02:30:54.339Z,102948.66
2023-04-19T02:33:22.397Z,102945.09
2023-04-19T02:35:49.741Z,102945.78
2023-04-19T02:38:16.465Z,102952.38
2023-04-19T02:40:42.965Z,102957.63
2023-04-19T02:43:09.388Z,102954.03
2023-04-19T02:45:36.326Z,102959.16
2023-04-19T02:48:02.946Z,102954.63
2023-04-19T02:50:29.453Z,102958.91
2023-04-19T02:52:55.932Z,102957.25
2023-04-19T02:55:22.405Z,102952.81
2023-04-19T02:57:49.003Z,102958.91
2023-04-19T03:00:16.217Z,102953.56
2023-04-19T03:02:44.135Z,102949.13
2023-04-19T03:05:10.846Z,102955.22
2023-04-19T03:07:37.314Z,102957.84
2023-04-19T03:10:04.116Z,102950.81
2023-04-19T03:12:30.633Z,102951.53
2023-04-19T03:14:57.113Z,102951.41
2023-04-19T03:17:23.530Z,102952.22
2023-04-19T03:19:50.148Z,102948.63
2023-04-19T03:22:16.647Z,102947.81
2023-04-19T03:24:43.091Z,102944.94
2023-04-19T03:27:09.616Z,102942.22
2023-04-19T03:29:36.158Z,102939.47
2023-04-19T03:32:02.551Z,102950.44
2023-04-19T03:34:29.029Z,102939.13
2023-04-19T03:36:55.867Z,102943.31
2023-04-19T03:39:22.349Z,102945.78
2023-04-19T03:41:48.769Z,102936.38
2023-04-19T03:44:15.660Z,102944.13
2023-04-19T03:46:42.289Z,102947.59
2023-04-19T03:49:08.767Z,102931.25
2023-04-19T03:51:35.376Z,102936.69
2023-04-19T03:54:01.800Z,102938.28
2023-04-19T03:56:28.305Z,102939.00
2023-04-19T03:58:54.703Z,102939.84
2023-04-19T04:01:22.277Z,102926.22
2023-04-19T04:03:49.342Z,102944.34
2023-04-19T04:06:16.239Z,102936.84
2023-04-19T04:08:42.781Z,102932.78
2023-04-19T04:11:09.573Z,102930.28
2023-04-19T04:13:36.102Z,102939.22
2023-04-19T04:16:02.572Z,102941.13
2023-04-19T04:18:29.070Z,102936.59
2023-04-19T04:20:55.682Z,102933.97
2023-04-19T04:23:22.778Z,102927.19
2023-04-19T04:25:57.995Z,102936.09
2023-04-19T04:28:24.467Z,102938.03
2023-04-19T04:30:51.960Z,102940.97
2023-04-19T04:33:18.585Z,102936.69
2023-04-19T04:35:45.163Z,102938.72
2023-04-19T04:38:23.624Z,102938.34
2023-04-19T04:40:55.617Z,102939.53
2023-04-19T04:43:28.906Z,102935.25
2023-04-19T04:45:57.815Z,102931.19
2023-04-19T04:48:25.002Z,102941.06
2023-04-19T04:50:51.478Z,102944.88
2023-04-19T04:53:17.942Z,102938.06
2023-04-19T04:55:44.678Z,102941.75
2023-04-19T04:58:11.135Z,102939.34
2023-04-19T05:00:37.588Z,102944.72
2023-04-19T05:03:04.157Z,102944.00
2023-04-19T05:05:30.849Z,102942.44
2023-04-19T05:07:57.353Z,102948.66
2023-04-19T05:10:23.769Z,102944.00
2023-04-19T05:12:50.231Z,102949.13
2023-04-19T05:15:16.719Z,102953.41
2023-04-19T05:17:43.439Z,102949.97
2023-04-19T05:20:10.485Z,102949.97
2023-04-19T05:22:37.613Z,102949.25
2023-04-19T05:25:04.683Z,102952.56
2023-04-19T05:27:31.123Z,102949.97
2023-04-19T05:29:57.563Z,102954.38
2023-04-19T05:32:24.008Z,102960.31
2023-04-19T05:34:50.544Z,102956.63
2023-04-19T05:37:16.942Z,102955.47
2023-04-19T05:39:44.648Z,102953.56
2023-04-19T05:42:12.480Z,102961.81
2023-04-19T05:44:38.905Z,102956.22
2023-04-19T05:47:05.447Z,102952.06
2023-04-19T05:49:31.905Z,102949.34
2023-04-19T05:51:58.355Z,102968.44
2023-04-19T05:54:24.829Z,102960.84
2023-04-19T05:56:51.277Z,102968.34
2023-04-19T05:59:17.814Z,102968.81
2023-04-19T06:01:45.117Z,102960.25
2023-04-19T06:04:11.795Z,102958.31
2023-04-19T06:06:38.376Z,102960.84
2023-04-19T06:09:04.963Z,102968.13
2023-04-19T06:11:38.947Z,102961.66
2023-04-19T06:14:10.595Z,102964.06
2023-04-19T06:16:37.218Z,102967.97
2023-04-19T06:19:03.751Z,102968.91
2023-04-19T06:21:31.643Z,102964.59
2023-04-19T06:23:58.317Z,102967.66
2023-04-19T06:26:24.972Z,102971.72
2023-04-19T06:28:51.534Z,102963.72
2023-04-19T06:31:18.006Z,102964.94
2023-04-19T06:33:44.516Z,102964.34
2023-04-19T06:36:10.882Z,102965.19
2023-04-19T06:38:38.499Z,102958.38
2023-04-19T06:41:05.454Z,102966.50
2023-04-19T06:43:31.882Z,102970.09
2023-04-19T06:45:59.566Z,102962.06
2023-04-19T06:48:26.457Z,102963.38
2023-04-19T06:50:53.101Z,102962.41
2023-04-19T06:53:19.846Z,102969.38
2023-04-19T06:55:46.678Z,102971.13
2023-04-19T06:58:13.231Z,102963.72
2023-04-19T07:00:39.721Z,102964.19
2023-04-19T07:03:06.361Z,102969.78
2023-04-19T07:05:32.962Z,102974.53
2023-04-19T07:07:59.386Z,102966.84
2023-04-19T07:10:25.855Z,102970.75
2023-04-19T07:12:52.402Z,102966.81
2023-04-19T07:15:18.863Z,102968.97
2023-04-19T07:17:45.378Z,102967.19
2023-04-19T07:20:11.889Z,102954.94
2023-04-19T07:22:38.436Z,102961.34
2023-04-19T07:25:05.136Z,102962.66
2023-04-19T07:27:31.599Z,102958.72
2023-04-19T07:29:58.073Z,102968.41
2023-04-19T07:32:24.685Z,102962.06
2023-04-19T07:34:51.767Z,102954.59
2023-04-19T07:37:18.281Z,102970.03
2023-04-19T07:39:44.764Z,102967.00
2023-04-19T07:42:11.384Z,102960.19
2023-04-19T07:44:37.878Z,102962.00
2023-04-19T07:47:05.922Z,102963.66
2023-04-19T07:49:34.270Z,102966.44
2023-04-19T07:52:01.920Z,102977.38
2023-04-19T07:54:28.915Z,102980.50
2023-04-19T07:56:55.379Z,102978.94
2023-04-19T07:59:22.043Z,102977.22
2023-04-19T08:01:49.677Z,102978.47
2023-04-19T08:04:18.424Z,102974.50
2023-04-19T08:06:45.679Z,102979.03
2023-04-19T08:09:12.162Z,102977.84
2023-04-19T08:11:38.589Z,102975.66
2023-04-19T08:14:15.176Z,102973.47
2023-04-19T08:19:17.929Z,102974.75
2023-04-19T08:21:44.402Z,102968.38
2023-04-19T08:24:11.002Z,102978.22
2023-04-19T08:26:39.108Z,102972.41
2023-04-19T08:29:05.633Z,102971.88
2023-04-19T08:31:32.506Z,102978.25
2023-04-19T08:34:00.234Z,102972.88
2023-04-19T08:36:39.061Z,102972.31
2023-04-19T08:39:18.017Z,102963.34
2023-04-19T08:42:06.610Z,102959.19
2023-04-19T08:44:51.007Z,102963.84
2023-04-19T08:47:32.197Z,102949.03
2023-04-19T08:50:16.792Z,102956.53
2023-04-19T08:52:54.974Z,102960.44
2023-04-19T08:55:25.953Z,102958.50
2023-04-19T08:57:52.660Z,102956.13
2023-04-19T09:00:19.685Z,102955.41
2023-04-19T09:02:48.420Z,102957.91
2023-04-19T09:05:18.134Z,102958.88
2023-04-19T09:07:46.513Z,102953.75
2023-04-19T09:10:16.259Z,102956.81
2023-04-19T09:12:43.172Z,102940.91
2023-04-19T09:15:10.928Z,102947.81
2023-04-19T09:17:39.138Z,102946.72
2023-04-19T09:20:06.715Z,102954.19
2023-04-19T09:22:33.968Z,102947.66
2023-04-19T09:27:33.364Z,102945.72
2023-04-19T09:30:01.526Z,102948.50
2023-04-19T09:32:29.160Z,102947.22
2023-04-19T09:35:00.184Z,102936.13
2023-04-19T09:39:57.000Z,102931.25
2023-04-19T09:42:42.417Z,102932.78
2023-04-19T09:45:28.465Z,102939.88
2023-04-19T09:48:04.911Z,102935.56
2023-04-19T09:50:32.245Z,102929.84
2023-04-19T09:53:00.252Z,102935.41
2023-04-19T09:55:28.837Z,102931.25
2023-04-19T09:57:56.782Z,102933.19
2023-04-19T10:00:23.635Z,102928.00
2023-04-19T10:02:58.443Z,102928.41
2023-04-19T10:05:26.413Z,102923.94
2023-04-19T10:07:59.298Z,102929.09
2023-04-19T10:10:41.319Z,102922.81
2023-04-19T10:13:20.283Z,102920.59
2023-04-19T10:15:53.637Z,102918.09
2023-04-19T10:18:24.276Z,102919.53
2023-04-19T10:21:01.966Z,102914.97
2023-04-19T10:23:29.268Z,102910.50
2023-04-19T10:25:57.778Z,102919.22
2023-04-19T10:28:24.461Z,102897.34
2023-04-19T10:30:57.291Z,102912.50
2023-04-19T10:33:29.518Z,102904.38
2023-04-19T10:35:57.896Z,102904.50
2023-04-19T10:38:49.390Z,102895.72
2023-04-19T10:41:18.491Z,102909.16
2023-04-19T10:43:58.186Z,102912.25
2023-04-19T10:46:25.886Z,102902.94
2023-04-19T10:48:54.962Z,102906.59
2023-04-19T10:51:47.484Z,102903.81
2023-04-19T10:54:31.320Z,102899.44
2023-04-19T10:57:06.105Z,102900.41
2023-04-19T10:59:34.562Z,102890.28
2023-04-19T11:02:05.510Z,102879.47
2023-04-19T11:04:32.287Z,102887.59
2023-04-19T11:07:01.587Z,102891.56
2023-04-19T11:09:31.428Z,102879.25
2023-04-19T11:12:01.219Z,102870.53
2023-04-19T11:14:31.793Z,102864.63
2023-04-19T11:16:58.758Z,102866.38
2023-04-19T11:19:25.364Z,102860.00
2023-04-19T11:21:51.801Z,102860.16
2023-04-19T11:24:21.340Z,102855.72
2023-04-19T11:26:52.104Z,102853.56
2023-04-19T11:29:21.933Z,102844.19
2023-04-19T11:31:48.629Z,102845.34
2023-04-19T11:34:15.482Z,102839.34
2023-04-19T11:36:52.460Z,102836.88
2023-04-19T11:39:19.108Z,102831.38
2023-04-19T11:41:47.373Z,102824.97
2023-04-19T11:44:14.990Z,102831.69
2023-04-19T11:46:42.392Z,102824.59
2023-04-19T11:49:08.922Z,102813.00
2023-04-19T11:51:35.478Z,102814.13
2023-04-19T11:54:02.026Z,102806.19
2023-04-19T11:56:28.533Z,102818.28
2023-04-19T11:58:57.830Z,102808.19
2023-04-19T12:01:25.879Z,102802.53
2023-04-19T12:03:54.410Z,102805.88
2023-04-19T12:06:29.080Z,102807.69
2023-04-19T12:08:56.619Z,102803.03
2023-04-19T12:11:24.904Z,102797.22
2023-04-19T12:14:11.771Z,102805.38
2023-04-19T12:16:38.900Z,102796.63
2023-04-19T12:19:15.631Z,102801.13
2023-04-19T12:21:42.242Z,102793.28
2023-04-19T12:24:08.916Z,102798.94
2023-04-19T12:26:36.078Z,102793.94
2023-04-19T12:29:03.651Z,102783.19
2023-04-19T12:31:33.678Z,102792.47
2023-04-19T12:34:00.271Z,102781.22
2023-04-19T12:36:26.838Z,102782.66
2023-04-19T12:38:53.390Z,102784.31
2023-04-19T12:41:19.800Z,102779.50
2023-04-19T12:43:46.235Z,102777.84
2023-04-19T12:46:12.785Z,102772.19
2023-04-19T12:48:39.753Z,102768.53
2023-04-19T12:51:06.204Z,102770.34
2023-04-19T12:53:33.055Z,102772.38
2023-04-19T12:55:59.453Z,102766.88
2023-04-19T12:58:28.040Z,102770.47
2023-04-19T13:00:54.489Z,102760.03
2023-04-19T13:03:21.168Z,102761.69
2023-04-19T13:05:49.030Z,102753.91
2023-04-19T13:08:15.838Z,102740.31
2023-04-19T13:10:42.283Z,102734.78
2023-04-19T13:13:08.686Z,102731.28
2023-04-19T13:15:35.362Z,102740.22
2023-04-19T13:18:01.932Z,102725.34
2023-04-19T13:20:29.113Z,102720.44
2023-04-19T13:22:55.577Z,102722.78
2023-04-19T13:25:22.348Z,102717.97
2023-04-19T13:27:48.826Z,102711.34
2023-04-19T13:30:15.686Z,102716.81
2023-04-19T13:32:42.209Z,102706.19
2023-04-19T13:35:09.191Z,102695.53
2023-04-19T13:37:35.762Z,102691.88
2023-04-19T13:40:17.544Z,102686.19
2023-04-19T13:42:45.582Z,102688.31
2023-04-19T13:45:12.221Z,102688.94
2023-04-19T13:47:38.767Z,102690.16
2023-04-19T13:50:05.720Z,102676.34
2023-04-19T13:52:32.337Z,102688.94
2023-04-19T13:54:58.759Z,102676.81
2023-04-19T13:57:25.474Z,102670.53
2023-04-19T13:59:51.980Z,102668.63
2023-04-19T14:02:18.733Z,102667.06
2023-04-19T14:04:45.269Z,102658.19
2023-04-19T14:07:11.925Z,102648.56
2023-04-19T14:09:38.393Z,102645.09
2023-04-19T14:12:05.177Z,102644.81
2023-04-19T14:14:32.510Z,102647.94
2023-04-19T14:16:59.052Z,102642.53
2023-04-19T14:19:25.559Z,102638.66
2023-04-19T14:21:52.030Z,102630.59
2023-04-19T14:24:18.703Z,102629.09
2023-04-19T14:26:45.351Z,102630.47
2023-04-19T14:29:11.891Z,102623.88
2023-04-19T14:31:38.488Z,102619.31
2023-04-19T14:34:05.182Z,102622.06
2023-04-19T14:36:31.788Z,102613.25
2023-04-19T14:38:58.240Z,102610.66
2023-04-19T14:41:25.256Z,102600.47
2023-04-19T14:43:52.109Z,102603.34
2023-04-19T14:46:18.713Z,102603.59
2023-04-19T14:48:45.269Z,102601.97
2023-04-19T14:51:11.745Z,102596.84
2023-04-19T14:53:38.141Z,102597.91
2023-04-19T14:56:05.863Z,102599.31
2023-04-19T14:58:32.361Z,102592.72
2023-04-19T15:00:59.152Z,102590.47
2023-04-19T15:03:26.033Z,102577.75
2023-04-19T15:05:52.810Z,102577.22
2023-04-19T15:08:30.129Z,102588.75
2023-04-19T15:10:57.395Z,102581.97
2023-04-19T15:13:24.075Z,102582.50
2023-04-19T15:15:51.272Z,102575.25
2023-04-19T15:18:17.876Z,102573.06
2023-04-19T15:20:44.416Z,102570.75
2023-04-19T15:23:10.924Z,102574.22
2023-04-19T15:25:37.378Z,102569.41
2023-04-19T15:28:04.058Z,102571.25
2023-04-19T15:30:30.555Z,102570.53
2023-04-19T15:32:57.116Z,102561.00
2023-04-19T15:35:23.646Z,102564.56
2023-04-19T15:37:50.114Z,102556.59
2023-04-19T15:40:17.205Z,102558.00
2023-04-19T15:42:43.931Z,102560.00
2023-04-19T15:45:10.743Z,102559.09
2023-04-19T15:47:37.327Z,102551.81
2023-04-19T15:50:04.629Z,102552.28
2023-04-19T15:52:31.417Z,102561.63
2023-04-19T15:54:57.877Z,102556.59
2023-04-19T15:57:24.332Z,102553.41
2023-04-19T15:59:50.866Z,102558.88
2023-04-19T16:02:17.608Z,102561.22
2023-04-19T16:04:47.982Z,102562.25
2023-04-19T16:07:14.623Z,102553.00
2023-04-19T16:09:41.172Z,102545.16
2023-04-19T16:12:07.660Z,102547.19
2023-04-19T16:14:34.141Z,102545.50
2023-04-19T16:17:01.108Z,102547.34
2023-04-19T16:19:27.540Z,102545.00
2023-04-19T16:21:54.018Z,102535.97
2023-04-19T16:24:20.562Z,102545.28
2023-04-19T16:26:46.986Z,102543.97
2023-04-19T16:29:13.577Z,102544.34
2023-04-19T16:31:40.098Z,102540.72
2023-04-19T16:34:06.514Z,102541.72
2023-04-19T16:36:32.994Z,102550.69
2023-04-19T16:39:00.555Z,102555.97
2023-04-19T16:41:27.012Z,102542.88
2023-04-19T16:43:55.485Z,102547.69
2023-04-19T16:46:22.635Z,102543.94
2023-04-19T16:48:49.170Z,102547.13
2023-04-19T16:51:15.795Z,102543.16
2023-04-19T16:53:43.560Z,102540.19
2023-04-19T16:56:10.093Z,102534.75
2023-04-19T16:58:36.751Z,102540.03
2023-04-19T17:01:03.513Z,102532.59
2023-04-19T17:03:33.175Z,102539.72
2023-04-19T17:06:00.543Z,102535.22
2023-04-19T17:08:27.081Z,102541.88
2023-04-19T17:10:53.514Z,102533.59
2023-04-19T17:13:20.094Z,102538.41
2023-04-19T17:15:46.632Z,102529.78
2023-04-19T17:18:13.172Z,102524.34
2023-04-19T17:20:39.738Z,102535.28
2023-04-19T17:23:06.419Z,102528.66
2023-04-19T17:25:32.886Z,102521.19
2023-04-19T17:27:59.354Z,102525.50
2023-04-19T17:30:26.263Z,102513.91
2023-04-19T17:32:52.943Z,102526.28
2023-04-19T17:35:19.489Z,102526.41
2023-04-19T17:37:46.266Z,102527.09
2023-04-19T17:40:12.875Z,102526.59
2023-04-19T17:42:39.293Z,102523.06
2023-04-19T17:45:10.814Z,102518.09
2023-04-19T17:47:38.573Z,102523.19
2023-04-19T17:50:07.489Z,102525.34
2023-04-19T17:52:34.553Z,102520.22
2023-04-19T17:55:02.371Z,102522.34
2023-04-19T17:57:29.860Z,102518.03
2023-04-19T17:59:56.389Z,102518.66
2023-04-19T18:02:23.842Z,102526.56
2023-04-19T18:04:50.514Z,102523.41
2023-04-19T18:07:17.180Z,102518.91
2023-04-19T18:09:43.728Z,102527.75
2023-04-19T18:12:10.215Z,102531.81
2023-04-19T18:14:36.683Z,102507.03
2023-04-19T18:17:05.461Z,102521.19
2023-04-19T18:19:32.052Z,102531.75
2023-04-19T18:21:58.542Z,102530.41
2023-04-19T18:24:24.964Z,102536.63
2023-04-19T18:26:52.807Z,102537.38
2023-04-19T18:29:20.834Z,102538.84
2023-04-19T18:31:47.315Z,102539.50
2023-04-19T18:34:13.905Z,102547.50
2023-04-19T18:36:40.372Z,102549.09
2023-04-19T18:39:07.231Z,102546.22
2023-04-19T18:41:33.747Z,102548.50
2023-04-19T18:44:30.050Z,102551.06
2023-04-19T18:46:46.751Z,102557.22
2023-04-19T18:49:13.202Z,102554.59
2023-04-19T18:51:39.652Z,102557.16
2023-04-19T18:54:06.297Z,102560.25
2023-04-19T18:57:11.090Z,102561.81
2023-04-19T18:59:19.471Z,102571.50
2023-04-19T19:01:46.050Z,102574.88
2023-04-19T19:04:37.311Z,102582.25
2023-04-19T19:07:18.009Z,102584.09
2023-04-19T19:09:55.281Z,102586.50
2023-04-19T19:12:22.855Z,102597.09
2023-04-19T19:14:49.259Z,102588.22
2023-04-19T19:17:15.919Z,102584.88
2023-04-19T19:19:42.430Z,102590.31
2023-04-19T19:22:22.354Z,102588.13
2023-04-19T19:24:52.099Z,102600.72
2023-04-19T19:27:18.604Z,102603.75
2023-04-19T19:29:46.759Z,102605.56
2023-04-19T19:32:14.154Z,102607.66
2023-04-19T19:34:51.852Z,102611.41
2023-04-19T19:37:21.823Z,102610.16
2023-04-19T19:39:48.336Z,102608.66
2023-04-19T19:42:18.130Z,102614.34
2023-04-19T19:44:44.829Z,102619.03
2023-04-19T19:47:11.865Z,102616.13
2023-04-19T19:52:08.034Z,102621.53
2023-04-19T19:54:34.665Z,102622.09
2023-04-19T19:59:34.568Z,102629.28
2023-04-19T20:02:02.282Z,102630.38
2023-04-19T20:04:29.540Z,102631.06
2023-04-19T20:09:27.902Z,102636.75
2023-04-19T20:11:54.470Z,102639.38
2023-04-19T20:14:23.331Z,102642.03
2023-04-19T20:16:50.267Z,102639.38
2023-04-19T20:19:16.994Z,102646.72
2023-04-19T20:21:43.980Z,102641.19
2023-04-19T20:24:10.475Z,102646.44
2023-04-19T20:26:36.874Z,102648.19
2023-04-19T20:29:03.329Z,102653.72
2023-04-19T20:31:30.409Z,102656.63
2023-04-19T20:33:57.302Z,102658.00
2023-04-19T20:36:24.608Z,102660.59
2023-04-19T20:38:51.225Z,102663.78
2023-04-19T20:41:18.807Z,102658.88
2023-04-19T20:43:45.311Z,102660.81
2023-04-19T20:46:11.914Z,102663.47
2023-04-19T20:48:38.395Z,102667.31
2023-04-19T20:51:04.809Z,102661.34
2023-04-19T20:53:31.876Z,102657.19
2023-04-19T20:55:58.372Z,102669.50
2023-04-19T20:58:24.782Z,102665.47
2023-04-19T21:00:51.325Z,102665.03
2023-04-19T21:03:18.089Z,102673.44
2023-04-19T21:05:44.731Z,102666.09
2023-04-19T21:08:11.244Z,102665.63
2023-04-19T21:10:37.792Z,102664.94
2023-04-19T21:13:04.279Z,102667.00
2023-04-19T21:15:30.688Z,102665.72
2023-04-19T21:17:57.192Z,102663.47
2023-04-19T21:20:23.694Z,102666.59
2023-04-19T21:22:50.137Z,102663.41
2023-04-19T21:25:16.644Z,102662.69
2023-04-19T21:27:43.237Z,102665.41
2023-04-19T21:30:10.742Z,102663.31
2023-04-19T21:32:37.263Z,102662.59
2023-04-19T21:35:04.038Z,102657.03
2023-04-19T21:37:30.562Z,102663.50
2023-04-19T21:39:57.727Z,102661.25
2023-04-19T21:42:24.215Z,102662.34
2023-04-19T21:44:50.648Z,102658.53
2023-04-19T21:47:17.121Z,102659.75
2023-04-19T21:49:43.584Z,102661.41
2023-04-19T21:52:10.956Z,102662.28
2023-04-19T21:54:37.394Z,102657.38
2023-04-19T21:57:04.226Z,102655.88
2023-04-19T21:59:31.009Z,102663.41
2023-04-19T22:01:58.682Z,102659.34
2023-04-19T22:04:25.294Z,102663.28
2023-04-19T22:06:51.789Z,102652.84
2023-04-19T22:09:18.279Z,102658.56
2023-04-19T22:11:45.792Z,102661.81
2023-04-19T22:14:12.804Z,102662.56
2023-04-19T22:16:39.312Z,102665.88
2023-04-19T22:19:05.823Z,102667.22
2023-04-19T22:21:32.783Z,102667.69
2023-04-19T22:23:59.288Z,102663.88
2023-04-19T22:26:26.757Z,102659.72
2023-04-19T22:28:53.982Z,102667.09
2023-04-19T22:31:20.601Z,102666.63
2023-04-19T22:33:47.062Z,102662.69
2023-04-19T22:36:13.461Z,102665.81
2023-04-19T22:38:39.921Z,102664.03
2023-04-19T22:41:06.345Z,102664.84
2023-04-19T22:43:33.195Z,102663.53
2023-04-19T22:45:59.850Z,102658.53
2023-04-19T22:48:28.031Z,102666.50
2023-04-19T22:50:54.488Z,102669.13
2023-04-19T22:53:21.012Z,102667.22
2023-04-19T22:55:47.587Z,102660.91
2023-04-19T22:58:13.998Z,102657.09
2023-04-19T23:00:40.506Z,102662.22
2023-04-19T23:03:07.020Z,102657.81
2023-04-19T23:05:33.713Z,102658.66
2023-04-19T23:08:02.671Z,102657.22
2023-04-19T23:10:29.203Z,102658.19
2023-04-19T23:12:56.343Z,102650.44
2023-04-19T23:15:24.665Z,102652.94
2023-04-19T23:17:51.856Z,102651.38
2023-04-19T23:20:18.778Z,102651.38
2023-04-19T23:22:45.353Z,102644.25
2023-04-19T23:25:11.796Z,102649.00
2023-04-19T23:27:38.339Z,102643.28
2023-04-19T23:30:07.744Z,102650.53
2023-04-19T23:32:34.366Z,102644.09
2023-04-19T23:35:01.044Z,102643.38
2023-04-19T23:37:27.474Z,102634.00
2023-04-19T23:39:53.913Z,102634.91
2023-04-19T23:42:20.509Z,102625.53
2023-04-19T23:44:46.920Z,102625.63
2023-04-19T23:47:13.370Z,102626.47
2023-04-19T23:49:39.777Z,102615.38
2023-04-19T23:52:06.481Z,102610.50
2023-04-19T23:54:32.949Z,102615.97
2023-04-19T23:56:59.636Z,102608.25
2023-04-19T23:59:29.119Z,102613.72
